Time;durP1;ratioP1;P1;durP2;ratioP2;P2;SDS_P1;SDS_P2;PMS_P1;PMS_P2;Temp;Humidity;BMP_temperature;BMP_pressure;BME280_temperature;BME280_humidity;BME280_pressure;Samples;Min_cycle;Max_cycle;Signal;HPM_P1;HPM_P2
2021/10/19 00:01:19;;;;;;;6.55;5.85;;;;;;;20.63;79.51;100329.44;5073233;28;20427;-86
2021/10/19 00:03:44;;;;;;;11.20;7.25;;;;;;;20.67;78.95;100310.25;5073028;28;20024;-87
2021/10/19 00:06:10;;;;;;;9.43;6.70;;;;;;;20.68;79.63;100297.78;5073033;28;20032;-87
2021/10/19 00:08:35;;;;;;;11.77;7.28;;;;;;;20.73;79.50;100312.22;5072984;28;20063;-86
2021/10/19 00:11:01;;;;;;;9.23;7.55;;;;;;;20.68;79.56;100314.59;5072860;28;20031;-87
2021/10/19 00:13:26;;;;;;;13.75;8.73;;;;;;;20.70;79.71;100322.44;5073206;28;20398;-87
2021/10/19 00:15:52;;;;;;;11.27;6.82;;;;;;;20.78;79.65;100312.56;5071519;28;20032;-87
2021/10/19 00:18:17;;;;;;;9.82;6.50;;;;;;;20.78;79.59;100306.41;5072680;28;20032;-87
2021/10/19 00:20:43;;;;;;;8.38;5.20;;;;;;;20.74;80.29;100302.41;5072841;28;20028;-87
2021/10/19 00:23:09;;;;;;;6.60;5.15;;;;;;;20.70;80.56;100299.25;5072618;28;20020;-87
2021/10/19 00:25:34;;;;;;;9.15;5.25;;;;;;;20.85;79.72;100309.19;5072857;28;20043;-87
2021/10/19 00:28:00;;;;;;;6.10;4.53;;;;;;;20.86;79.73;100321.53;5079036;28;20050;-87
2021/10/19 00:30:26;;;;;;;7.85;5.43;;;;;;;20.83;79.71;100316.53;5092666;28;20047;-87
2021/10/19 00:32:51;;;;;;;5.45;4.50;;;;;;;20.83;79.61;100320.03;5092703;28;20074;-87
2021/10/19 00:35:17;;;;;;;5.97;5.25;;;;;;;20.84;79.54;100311.03;5092683;28;20024;-87
2021/10/19 00:37:43;;;;;;;5.47;4.45;;;;;;;20.90;79.48;100306.84;5091288;28;20035;-87
2021/10/19 00:40:09;;;;;;;6.45;5.00;;;;;;;20.91;79.41;100308.50;5092160;28;20032;-87
2021/10/19 00:42:35;;;;;;;7.93;4.60;;;;;;;20.89;79.56;100303.34;5087089;28;20487;-87
2021/10/19 00:45:02;;;;;;;11.38;5.63;;;;;;;20.89;79.55;100306.03;5072468;28;20028;-87
2021/10/19 00:47:27;;;;;;;5.88;4.30;;;;;;;20.97;79.40;100291.78;5072285;28;20064;-87
2021/10/19 00:49:53;;;;;;;5.93;4.82;;;;;;;20.97;79.07;100286.44;5072202;28;20055;-87
2021/10/19 00:52:19;;;;;;;7.05;4.28;;;;;;;20.97;79.29;100287.28;5072269;28;20104;-87
2021/10/19 00:54:45;;;;;;;8.95;4.63;;;;;;;20.95;79.56;100283.97;5072185;28;20066;-87
2021/10/19 00:57:10;;;;;;;5.95;4.70;;;;;;;20.91;79.84;100277.31;5075829;28;20039;-87
2021/10/19 00:59:46;;;;;;;5.45;4.25;;;;;;;20.89;80.30;100273.13;5092249;28;20111;-87
2021/10/19 01:02:14;;;;;;;6.10;4.15;;;;;;;20.86;80.44;100273.50;5092196;28;20028;-87
2021/10/19 01:04:40;;;;;;;4.93;4.22;;;;;;;20.79;81.45;100276.88;5092165;28;20028;-87
2021/10/19 01:07:06;;;;;;;5.65;4.05;;;;;;;20.85;80.76;100274.50;5092189;28;20387;-87
2021/10/19 01:09:31;;;;;;;6.10;3.75;;;;;;;20.94;80.80;100276.94;5092157;28;20028;-87
2021/10/19 01:11:57;;;;;;;8.52;3.72;;;;;;;20.89;80.38;100274.00;5083537;28;20020;-87
2021/10/19 01:14:22;;;;;;;5.82;4.20;;;;;;;20.96;80.49;100268.78;5071831;28;20493;-87
2021/10/19 01:16:47;;;;;;;5.78;3.38;;;;;;;20.97;80.50;100270.41;5071604;28;20031;-87
2021/10/19 01:19:21;;;;;;;4.88;3.50;;;;;;;21.03;79.76;100274.22;5071898;28;20356;-87
2021/10/19 01:21:55;;;;;;;4.07;3.17;;;;;;;21.06;79.94;100268.56;5071769;28;20501;-87
2021/10/19 01:24:21;;;;;;;4.43;3.22;;;;;;;21.04;79.61;100268.72;5071852;28;20032;-87
2021/10/19 01:26:46;;;;;;;7.80;3.10;;;;;;;20.98;79.96;100272.94;5080439;28;20425;-87
2021/10/19 01:29:13;;;;;;;4.53;3.00;;;;;;;20.98;80.19;100280.94;5091633;28;20397;-86
2021/10/19 01:31:39;;;;;;;5.43;3.53;;;;;;;21.05;80.16;100278.41;5091875;28;20466;-87
2021/10/19 01:34:04;;;;;;;3.90;3.08;;;;;;;21.08;79.83;100267.38;5091874;28;20058;-86
2021/10/19 01:36:29;;;;;;;8.25;3.10;;;;;;;20.99;80.64;100263.06;5091943;28;20045;-87
2021/10/19 01:38:55;;;;;;;6.43;3.50;;;;;;;21.17;78.67;100265.50;5091941;28;20107;-87
2021/10/19 01:41:20;;;;;;;3.45;2.85;;;;;;;21.19;78.74;100268.81;5089709;28;20028;-87
2021/10/19 01:43:46;;;;;;;5.25;3.60;;;;;;;21.25;78.18;100257.44;5091778;28;20375;-87
2021/10/19 01:46:12;;;;;;;4.03;3.10;;;;;;;21.22;78.32;100260.44;5091579;28;20039;-87
2021/10/19 01:48:37;;;;;;;3.97;2.88;;;;;;;21.33;77.69;100248.53;5091727;28;20466;-87
2021/10/19 01:51:03;;;;;;;7.22;2.97;;;;;;;21.31;77.85;100253.22;5092338;28;20141;-86
2021/10/19 01:53:28;;;;;;;2.92;2.38;;;;;;;21.37;77.63;100261.34;5095751;28;20499;-87
2021/10/19 01:55:54;;;;;;;5.03;2.22;;;;;;;21.21;77.63;100240.09;5089544;28;20021;-87
2021/10/19 01:58:24;;;;;;;2.97;2.30;;;;;;;21.21;78.80;100240.09;5075315;28;20765;-86
2021/10/19 02:00:51;;;;;;;2.72;2.20;;;;;;;21.38;77.51;100249.63;5075321;28;20036;-87
2021/10/19 02:03:16;;;;;;;2.80;2.50;;;;;;;21.30;78.04;100248.88;5075561;28;20442;-86
2021/10/19 02:05:41;;;;;;;3.63;2.65;;;;;;;21.31;78.10;100235.34;5075357;28;20031;-87
2021/10/19 02:08:07;;;;;;;6.57;2.60;;;;;;;21.37;77.25;100239.97;5075164;28;20040;-86
2021/10/19 02:10:34;;;;;;;6.53;2.65;;;;;;;21.43;76.66;100243.81;5079870;28;20111;-86
2021/10/19 02:13:01;;;;;;;2.40;2.20;;;;;;;21.44;77.57;100233.94;5095274;28;20089;-87
2021/10/19 02:15:27;;;;;;;3.20;2.90;;;;;;;21.52;76.52;100237.38;5095381;28;20020;-87
2021/10/19 02:17:54;;;;;;;2.63;2.42;;;;;;;21.42;76.88;100228.75;5093546;28;20050;-86
2021/10/19 02:20:20;;;;;;;3.28;2.78;;;;;;;21.50;76.74;100226.03;5095307;28;20023;-87
2021/10/19 02:22:46;;;;;;;5.18;3.20;;;;;;;21.49;76.72;100215.53;5095247;28;20489;-87
2021/10/19 02:25:12;;;;;;;2.92;2.65;;;;;;;21.49;76.60;100207.53;5095284;28;20059;-87
2021/10/19 02:27:37;;;;;;;2.78;2.53;;;;;;;21.38;76.24;100204.22;5095252;28;20398;-87
2021/10/19 02:30:04;;;;;;;4.75;3.55;;;;;;;21.46;76.51;100186.50;5094873;28;20425;-87
2021/10/19 02:32:29;;;;;;;4.72;3.17;;;;;;;21.48;76.28;100187.16;5092381;28;20043;-87
2021/10/19 02:34:55;;;;;;;3.78;3.10;;;;;;;21.35;76.82;100188.56;5089038;28;20020;-87
2021/10/19 02:37:20;;;;;;;4.53;3.60;;;;;;;21.30;77.58;100196.28;5074607;28;20024;-87
2021/10/19 02:39:45;;;;;;;4.45;3.22;;;;;;;21.18;78.23;100187.03;5074690;28;20171;-87
2021/10/19 02:42:11;;;;;;;3.83;3.03;;;;;;;21.38;77.13;100176.69;5074570;28;20025;-87
2021/10/19 02:44:36;;;;;;;5.10;4.20;;;;;;;21.12;78.87;100183.25;5075916;28;20481;-86
2021/10/19 02:47:02;;;;;;;3.92;3.53;;;;;;;21.28;77.54;100181.47;5074442;28;20480;-87
2021/10/19 02:49:27;;;;;;;4.30;3.90;;;;;;;21.29;78.04;100181.28;5077621;28;20487;-86
2021/10/19 02:51:52;;;;;;;3.47;3.17;;;;;;;21.28;77.95;100181.47;5093168;28;20046;-87
2021/10/19 02:54:18;;;;;;;4.07;3.70;;;;;;;21.21;78.37;100181.34;5094405;28;20036;-87
2021/10/19 02:56:43;;;;;;;5.03;3.70;;;;;;;21.39;77.36;100184.53;5081247;28;20032;-87
2021/10/19 02:59:09;;;;;;;5.03;3.67;;;;;;;21.35;77.50;100191.25;5074392;28;20032;-87
2021/10/19 03:01:34;;;;;;;4.03;3.38;;;;;;;21.38;77.34;100184.72;5074413;28;20048;-87
2021/10/19 03:03:59;;;;;;;4.07;3.10;;;;;;;21.46;77.03;100181.16;5074082;28;20032;-87
2021/10/19 03:06:25;;;;;;;3.53;3.22;;;;;;;21.40;77.38;100174.69;5073991;28;20576;-86
2021/10/19 03:08:50;;;;;;;3.13;2.83;;;;;;;21.41;76.94;100168.34;5074141;28;20051;-86
2021/10/19 03:11:16;;;;;;;3.30;2.78;;;;;;;21.07;78.42;100174.09;5084778;28;20032;-87
2021/10/19 03:13:41;;;;;;;4.20;3.00;;;;;;;21.23;78.42;100179.34;5094347;28;20487;-87
2021/10/19 03:16:07;;;;;;;2.35;2.15;;;;;;;21.22;78.42;100168.84;5094336;28;20032;-86
2021/10/19 03:18:32;;;;;;;3.72;2.58;;;;;;;21.24;78.27;100159.63;5094105;28;20058;-86
2021/10/19 03:20:57;;;;;;;3.85;2.45;;;;;;;21.35;76.96;100151.19;5094196;28;20028;-86
2021/10/19 03:23:23;;;;;;;3.08;1.90;;;;;;;21.35;76.98;100156.53;5094074;28;20031;-87
2021/10/19 03:25:48;;;;;;;3.70;3.08;;;;;;;21.12;78.45;100145.06;5083562;28;20025;-87
2021/10/19 03:28:14;;;;;;;5.68;2.53;;;;;;;21.25;78.12;100142.59;5073649;28;20029;-87
2021/10/19 03:30:40;;;;;;;3.25;2.53;;;;;;;21.34;77.63;100133.50;5073670;28;20098;-87
2021/10/19 03:33:05;;;;;;;3.45;2.67;;;;;;;20.93;79.36;100149.88;5073820;28;20024;-87
2021/10/19 03:35:31;;;;;;;3.08;2.78;;;;;;;21.11;79.00;100143.38;5073683;28;20074;-87
2021/10/19 03:37:56;;;;;;;3.38;3.08;;;;;;;21.17;78.82;100140.84;5073682;28;20032;-86
2021/10/19 03:40:22;;;;;;;4.13;3.15;;;;;;;20.92;80.48;100137.53;5073729;28;20028;-87
2021/10/19 03:42:48;;;;;;;4.40;3.90;;;;;;;21.00;80.93;100141.97;5073386;28;20028;-87
2021/10/19 03:45:17;;;;;;;4.68;4.18;;;;;;;20.91;81.64;100146.56;5073527;28;20474;-86
2021/10/19 03:47:43;;;;;;;5.95;4.22;;;;;;;21.12;79.99;100137.88;5073634;28;20020;-86
2021/10/19 03:50:10;;;;;;;8.02;4.05;;;;;;;21.17;79.73;100145.34;5073356;28;20028;-86
2021/10/19 03:52:35;;;;;;;5.15;4.05;;;;;;;21.31;78.98;100141.06;5073340;28;20098;-86
2021/10/19 03:55:01;;;;;;;5.25;3.72;;;;;;;21.29;79.29;100140.41;5079530;28;20039;-87
2021/10/19 03:57:26;;;;;;;5.07;4.55;;;;;;;21.10;80.64;100144.41;5093272;28;20028;-87
2021/10/19 03:59:52;;;;;;;5.10;4.57;;;;;;;21.15;80.44;100152.72;5079342;28;20115;-87
2021/10/19 04:02:17;;;;;;;5.93;4.72;;;;;;;21.17;80.76;100153.38;5091556;28;20482;-86
2021/10/19 04:04:42;;;;;;;10.13;4.22;;;;;;;21.32;79.58;100151.53;5093482;28;20527;-86
2021/10/19 04:07:10;;;;;;;4.22;3.78;;;;;;;21.43;78.73;100147.66;5093225;28;20028;-86
2021/10/19 04:09:36;;;;;;;6.18;4.53;;;;;;;21.07;81.20;100150.94;5082993;28;20027;-87
2021/10/19 04:12:01;;;;;;;5.43;3.65;;;;;;;21.21;81.00;100143.97;5072872;28;20021;-86
2021/10/19 04:14:26;;;;;;;4.60;3.70;;;;;;;21.32;80.36;100140.03;5072262;28;20395;-86
2021/10/19 04:16:52;;;;;;;4.55;3.78;;;;;;;21.43;78.46;100144.13;5072709;28;20115;-86
2021/10/19 04:19:18;;;;;;;3.80;3.38;;;;;;;21.44;78.82;100151.13;5072858;28;20048;-86
2021/10/19 04:21:47;;;;;;;4.13;3.70;;;;;;;21.31;80.48;100152.56;5073298;28;20426;-86
2021/10/19 04:24:14;;;;;;;7.45;3.17;;;;;;;21.30;79.48;100137.53;5081757;28;20031;-86
2021/10/19 04:26:40;;;;;;;4.60;3.63;;;;;;;21.40;79.77;100137.28;5093175;28;20352;-86
2021/10/19 04:29:05;;;;;;;3.58;3.28;;;;;;;21.43;78.57;100136.13;5092691;28;20031;-87
2021/10/19 04:31:31;;;;;;;3.92;3.28;;;;;;;21.30;80.05;100136.72;5092752;28;20039;-87
2021/10/19 04:33:59;;;;;;;4.10;3.00;;;;;;;21.47;79.08;100137.44;5092839;28;20538;-87
2021/10/19 04:36:25;;;;;;;3.25;2.75;;;;;;;21.60;77.79;100142.97;5092716;28;20367;-86
2021/10/19 04:38:51;;;;;;;4.18;2.70;;;;;;;21.39;79.28;100130.31;5084239;28;20052;-86
2021/10/19 04:41:16;;;;;;;4.32;2.67;;;;;;;21.46;79.30;100135.75;5072251;28;20064;-86
2021/10/19 04:43:41;;;;;;;4.03;3.45;;;;;;;20.80;83.83;100130.94;5072499;28;20052;-87
2021/10/19 04:46:07;;;;;;;4.43;2.80;;;;;;;21.18;81.17;100117.63;5072411;28;20025;-87
2021/10/19 04:48:32;;;;;;;4.72;2.80;;;;;;;21.49;79.03;100122.06;5072355;28;20025;-87
2021/10/19 04:50:57;;;;;;;4.25;3.08;;;;;;;21.43;78.69;100126.28;5072108;28;20021;-86
2021/10/19 04:53:23;;;;;;;4.32;2.92;;;;;;;21.47;79.16;100108.06;5078220;28;20032;-87
2021/10/19 04:55:48;;;;;;;3.00;2.60;;;;;;;21.51;78.88;100109.34;5092204;28;20020;-87
2021/10/19 04:58:15;;;;;;;3.60;3.30;;;;;;;21.23;80.41;100117.94;5092363;28;20019;-86
2021/10/19 05:00:43;;;;;;;3.97;3.22;;;;;;;21.17;80.77;100124.00;5092531;28;20073;-86
2021/10/19 05:03:08;;;;;;;6.78;3.15;;;;;;;21.42;79.56;100121.91;5091026;28;20024;-86
2021/10/19 05:05:34;;;;;;;3.00;2.55;;;;;;;21.38;79.66;100131.28;5092316;28;20031;-87
2021/10/19 05:07:59;;;;;;;3.40;2.60;;;;;;;21.25;80.59;100120.41;5086807;28;20047;-86
2021/10/19 05:10:25;;;;;;;3.58;2.40;;;;;;;21.57;78.36;100121.97;5071774;28;20064;-86
2021/10/19 05:12:50;;;;;;;2.90;2.70;;;;;;;21.47;78.56;100132.91;5072213;28;20028;-86
2021/10/19 05:15:15;;;;;;;3.88;2.55;;;;;;;21.54;78.68;100116.97;5071969;28;20025;-87
2021/10/19 05:17:44;;;;;;;2.95;2.22;;;;;;;21.39;79.38;100112.44;5071754;28;20036;-86
2021/10/19 05:20:09;;;;;;;2.40;2.05;;;;;;;21.52;78.80;100116.34;5071871;28;20029;-86
2021/10/19 05:22:35;;;;;;;3.00;2.38;;;;;;;21.35;79.82;100111.13;5075268;28;20084;-87
2021/10/19 05:25:00;;;;;;;2.67;2.47;;;;;;;21.60;78.38;100105.56;5091673;28;20424;-86
2021/10/19 05:27:26;;;;;;;2.53;2.33;;;;;;;21.44;78.67;100111.91;5091982;28;20024;-87
2021/10/19 05:29:51;;;;;;;5.47;2.55;;;;;;;21.17;81.65;100107.97;5075000;28;20600;-86
2021/10/19 05:32:17;;;;;;;3.13;2.22;;;;;;;21.20;81.08;100110.25;5076794;28;20032;-87
2021/10/19 05:34:42;;;;;;;3.47;2.35;;;;;;;21.38;79.60;100102.75;5078035;28;20025;-87
2021/10/19 05:37:08;;;;;;;2.55;2.35;;;;;;;21.30;80.33;100105.50;5089743;28;20035;-87
2021/10/19 05:39:33;;;;;;;2.70;2.50;;;;;;;21.45;79.85;100116.25;5089008;28;20115;-87
2021/10/19 05:41:59;;;;;;;5.20;3.28;;;;;;;21.38;80.24;100112.59;5091882;28;20024;-87
2021/10/19 05:44:25;;;;;;;3.88;3.05;;;;;;;21.47;79.36;100121.41;5090293;28;20024;-86
2021/10/19 05:46:51;;;;;;;4.57;2.80;;;;;;;21.46;79.27;100115.22;5078836;28;20030;-87
2021/10/19 05:49:16;;;;;;;5.05;3.20;;;;;;;21.33;80.51;100121.16;5089931;28;20028;-87
2021/10/19 05:51:42;;;;;;;3.70;3.15;;;;;;;21.37;80.70;100118.97;5078753;28;20029;-87
2021/10/19 05:54:07;;;;;;;5.40;3.65;;;;;;;21.17;82.04;100122.16;5072485;28;20036;-86
2021/10/19 05:56:33;;;;;;;4.07;3.63;;;;;;;21.16;81.93;100114.31;5072466;28;20024;-86
2021/10/19 05:58:58;;;;;;;4.53;3.33;;;;;;;21.28;81.59;100114.72;5077360;28;20032;-86
2021/10/19 06:01:23;;;;;;;4.38;3.28;;;;;;;21.39;81.00;100112.44;5091303;28;20024;-87
2021/10/19 06:03:49;;;;;;;4.38;3.40;;;;;;;21.45;79.26;100112.75;5081142;28;20049;-86
2021/10/19 06:06:15;;;;;;;5.03;3.25;;;;;;;21.51;79.32;100114.69;5081856;28;20389;-87
2021/10/19 06:08:41;;;;;;;3.17;2.83;;;;;;;21.36;80.76;100109.28;5075844;28;20663;-88
2021/10/19 06:11:06;;;;;;;4.63;3.45;;;;;;;21.38;80.62;100105.41;5070891;28;20032;-86
2021/10/19 06:13:32;;;;;;;5.53;3.50;;;;;;;21.66;78.66;100099.47;5082056;28;20415;-86
2021/10/19 06:15:58;;;;;;;3.63;3.00;;;;;;;21.28;81.40;100102.19;5089805;28;20026;-87
2021/10/19 06:18:24;;;;;;;5.15;2.97;;;;;;;21.43;79.95;100090.72;5075733;28;20029;-86
2021/10/19 06:20:53;;;;;;;4.55;3.53;;;;;;;21.34;80.90;100077.41;5071299;28;20108;-87
2021/10/19 06:23:19;;;;;;;4.75;3.22;;;;;;;21.65;79.00;100091.66;5083115;28;20099;-87
2021/10/19 06:25:45;;;;;;;6.22;3.85;;;;;;;21.32;80.70;100079.44;5074148;28;20513;-87
2021/10/19 06:28:11;;;;;;;8.00;5.53;;;;;;;21.19;83.20;100084.59;5072348;28;20032;-87
2021/10/19 06:30:36;;;;;;;7.78;4.75;;;;;;;21.55;80.31;100083.94;5083022;28;20043;-87
2021/10/19 06:33:02;;;;;;;9.73;6.05;;;;;;;21.35;82.13;100081.75;5091258;28;20024;-87
2021/10/19 06:35:27;;;;;;;17.10;8.02;;;;;;;21.04;83.42;100073.88;5091631;28;20059;-87
2021/10/19 06:37:53;;;;;;;18.02;9.25;;;;;;;21.32;82.06;100081.28;5092827;28;20065;-87
2021/10/19 06:40:18;;;;;;;26.65;10.50;;;;;;;21.10;83.70;100089.16;5094918;28;20028;-87
2021/10/19 06:42:45;;;;;;;16.30;10.52;;;;;;;21.21;83.35;100069.22;5094660;28;20466;-86
2021/10/19 06:45:11;;;;;;;23.13;12.20;;;;;;;21.32;81.34;100075.94;5093722;28;20039;-87
2021/10/19 06:47:37;;;;;;;25.38;13.45;;;;;;;20.88;86.30;100074.84;5094654;28;20024;-87
2021/10/19 06:50:05;;;;;;;28.83;14.40;;;;;;;21.16;83.84;100074.25;5083817;28;20032;-86
2021/10/19 06:52:31;;;;;;;30.67;15.18;;;;;;;21.02;84.64;100080.41;5089856;28;20111;-87
2021/10/19 06:54:57;;;;;;;32.13;16.52;;;;;;;20.95;85.69;100081.13;5074255;28;20403;-87
2021/10/19 06:57:23;;;;;;;33.92;17.27;;;;;;;20.84;86.48;100078.88;5074941;28;20026;-87
2021/10/19 06:59:48;;;;;;;40.05;16.13;;;;;;;21.30;82.31;100070.78;5086578;28;20047;-87
2021/10/19 07:02:14;;;;;;;30.73;16.15;;;;;;;21.04;83.67;100081.88;5092500;28;20032;-87
2021/10/19 07:04:39;;;;;;;28.67;16.05;;;;;;;20.69;86.94;100080.66;5087844;28;20458;-87
2021/10/19 07:07:04;;;;;;;37.75;15.98;;;;;;;21.45;80.89;100081.53;5073910;28;20116;-87
2021/10/19 07:09:30;;;;;;;36.88;16.70;;;;;;;21.27;81.17;100083.66;5088493;28;20119;-87
2021/10/19 07:11:57;;;;;;;34.67;15.75;;;;;;;21.48;80.06;100088.34;5092440;28;20751;-87
2021/10/19 07:14:23;;;;;;;29.83;14.73;;;;;;;21.18;81.96;100086.41;5076016;28;20032;-87
2021/10/19 07:16:48;;;;;;;31.02;14.52;;;;;;;20.99;81.83;100087.78;5086487;28;20386;-87
2021/10/19 07:19:13;;;;;;;27.45;15.73;;;;;;;21.43;79.15;100080.88;5093660;28;20032;-87
2021/10/19 07:21:39;;;;;;;30.35;16.67;;;;;;;21.39;78.23;100068.88;5081247;28;20124;-87
2021/10/19 07:24:06;;;;;;;25.85;14.38;;;;;;;20.93;79.88;100072.47;5080108;28;20103;-87
2021/10/19 07:26:32;;;;;;;25.80;14.25;;;;;;;20.84;78.21;100084.22;5093326;28;20085;-87
2021/10/19 07:28:58;;;;;;;23.48;13.52;;;;;;;21.45;75.73;100080.69;5082732;28;20427;-87
2021/10/19 07:31:23;;;;;;;29.23;15.57;;;;;;;21.19;76.88;100084.59;5073531;28;20127;-87
2021/10/19 07:33:49;;;;;;;26.40;15.38;;;;;;;21.53;75.17;100076.09;5073303;28;20030;-87
2021/10/19 07:36:15;;;;;;;28.70;15.55;;;;;;;21.52;74.94;100086.94;5073682;28;20052;-87
2021/10/19 07:38:40;;;;;;;26.42;13.95;;;;;;;21.75;74.17;100093.03;5074371;28;20029;-87
2021/10/19 07:41:05;;;;;;;24.65;15.88;;;;;;;21.48;75.12;100083.81;5073503;28;20035;-86
2021/10/19 07:43:31;;;;;;;29.60;15.30;;;;;;;21.05;77.19;100099.56;5073496;28;20039;-87
2021/10/19 07:45:56;;;;;;;29.27;14.02;;;;;;;21.44;74.78;100089.72;5073404;28;20051;-87
2021/10/19 07:48:22;;;;;;;24.55;14.43;;;;;;;21.61;74.04;100098.41;5073169;28;20475;-87
2021/10/19 07:50:47;;;;;;;27.95;14.98;;;;;;;21.76;73.59;100110.75;5090581;28;20098;-87
2021/10/19 07:53:15;;;;;;;30.25;14.88;;;;;;;21.48;74.19;100102.50;5091610;28;20039;-87
2021/10/19 07:55:41;;;;;;;26.50;15.05;;;;;;;21.18;74.28;100106.94;5072961;28;20024;-87
2021/10/19 07:58:07;;;;;;;31.60;16.13;;;;;;;21.51;73.32;100107.50;5072421;28;20423;-87
2021/10/19 08:00:32;;;;;;;32.13;15.40;;;;;;;21.31;73.68;100093.00;5087508;28;20024;-87
2021/10/19 08:02:58;;;;;;;25.65;16.02;;;;;;;20.85;74.93;100085.88;5093318;28;20028;-87
2021/10/19 08:05:25;;;;;;;24.88;15.25;;;;;;;20.97;74.21;100113.81;5073782;28;20036;-87
2021/10/19 08:08:02;;;;;;;30.02;16.63;;;;;;;21.42;72.04;100100.53;5072835;28;20105;-87
2021/10/19 08:10:28;;;;;;;28.23;17.73;;;;;;;21.38;71.44;100102.75;5072869;28;20112;-87
2021/10/19 08:12:53;;;;;;;28.08;16.83;;;;;;;21.38;71.30;100104.59;5072722;28;20108;-87
2021/10/19 08:15:19;;;;;;;29.48;18.10;;;;;;;21.32;71.20;100108.81;5072912;28;20363;-87
2021/10/19 08:17:46;;;;;;;29.48;19.38;;;;;;;21.23;71.20;100109.06;5072660;28;20476;-88
2021/10/19 08:20:12;;;;;;;38.38;19.05;;;;;;;21.30;70.35;100110.84;5090256;28;20024;-87
2021/10/19 08:22:38;;;;;;;41.92;19.65;;;;;;;20.65;72.58;100114.03;5082809;28;20086;-87
2021/10/19 08:25:05;;;;;;;34.92;20.77;;;;;;;20.78;72.56;100098.28;5072521;28;20474;-87
2021/10/19 08:27:32;;;;;;;33.65;20.63;;;;;;;21.28;70.99;100102.19;5072513;28;20025;-87
2021/10/19 08:29:58;;;;;;;36.70;22.13;;;;;;;21.12;70.80;100115.69;5072483;28;20098;-87
2021/10/19 08:32:23;;;;;;;34.03;21.52;;;;;;;21.51;69.84;100125.38;5072502;28;20474;-87
2021/10/19 08:34:48;;;;;;;35.30;21.70;;;;;;;21.27;70.23;100131.72;5072866;28;20628;-87
2021/10/19 08:37:14;;;;;;;37.97;20.40;;;;;;;21.31;70.03;100122.38;5072275;28;20392;-88
2021/10/19 08:39:40;;;;;;;39.58;23.33;;;;;;;21.19;70.99;100109.44;5092526;28;20021;-87
2021/10/19 08:42:05;;;;;;;42.25;22.55;;;;;;;21.19;70.25;100124.66;5092679;28;20024;-87
2021/10/19 08:44:31;;;;;;;37.63;21.98;;;;;;;20.74;72.35;100104.97;5092756;28;20028;-87
2021/10/19 08:46:57;;;;;;;40.65;23.45;;;;;;;20.98;71.23;100112.78;5092419;28;20477;-87
2021/10/19 08:49:23;;;;;;;37.30;23.33;;;;;;;21.45;70.03;100112.75;5092262;28;20027;-87
2021/10/19 08:51:48;;;;;;;38.65;22.27;;;;;;;21.25;70.63;100109.72;5090470;28;20036;-87
2021/10/19 08:54:13;;;;;;;38.45;23.70;;;;;;;21.14;71.22;100113.66;5072093;28;20025;-88
2021/10/19 08:56:40;;;;;;;37.90;24.17;;;;;;;21.07;71.51;100115.38;5070807;28;20024;-87
2021/10/19 08:59:06;;;;;;;41.40;23.52;;;;;;;20.58;73.28;100112.03;5072041;28;20033;-87
2021/10/19 09:01:38;;;;;;;49.60;26.73;;;;;;;20.73;72.81;100114.78;5072664;28;20067;-87
2021/10/19 09:04:08;;;;;;;43.90;23.77;;;;;;;20.95;72.38;100126.50;5092332;28;20103;-87
2021/10/19 09:06:35;;;;;;;40.38;24.85;;;;;;;20.90;72.34;100107.50;5092028;28;20028;-87
2021/10/19 09:09:24;;;;;;;44.78;25.35;;;;;;;20.91;72.87;100111.84;5092176;28;20021;-87
2021/10/19 09:11:50;;;;;;;42.60;24.20;;;;;;;21.21;72.05;100111.94;5091847;28;20500;-88
2021/10/19 09:14:17;;;;;;;48.28;25.75;;;;;;;21.02;72.46;100097.25;5092066;28;20032;-87
2021/10/19 09:16:45;;;;;;;39.17;23.92;;;;;;;20.84;73.18;100094.88;5087371;28;20025;-87
2021/10/19 09:19:12;;;;;;;47.70;27.60;;;;;;;21.16;72.13;100093.78;5071729;28;20095;-88
2021/10/19 09:21:48;;;;;;;38.60;25.40;;;;;;;21.05;72.34;100075.53;5071755;28;20494;-87
2021/10/19 09:24:18;;;;;;;54.08;25.50;;;;;;;21.44;71.33;100095.06;5074247;28;20510;-87
2021/10/19 09:26:50;;;;;;;37.20;24.50;;;;;;;21.08;72.98;100101.03;5091849;28;20024;-87
2021/10/19 09:29:15;;;;;;;38.90;24.67;;;;;;;21.34;72.18;100084.59;5091796;28;20371;-88
2021/10/19 09:31:41;;;;;;;48.22;25.40;;;;;;;21.20;71.93;100063.03;5091729;28;20028;-88
2021/10/19 09:34:11;;;;;;;49.20;26.65;;;;;;;21.50;71.52;100068.44;5076630;28;20036;-86
2021/10/19 09:36:36;;;;;;;42.63;25.02;;;;;;;21.09;72.61;100065.31;5071406;28;20021;-87
2021/10/19 09:39:02;;;;;;;45.38;24.65;;;;;;;21.63;71.20;100045.59;5071514;28;20027;-87
2021/10/19 09:41:27;;;;;;;42.75;25.52;;;;;;;22.01;71.14;100066.84;5071555;28;20036;-87
2021/10/19 09:43:53;;;;;;;40.80;22.55;;;;;;;22.46;67.50;100073.75;5080879;28;20118;-87
2021/10/19 09:46:26;;;;;;;39.88;23.27;;;;;;;23.36;66.99;100072.28;5078385;28;20020;-87
2021/10/19 09:48:52;;;;;;;43.00;23.65;;;;;;;23.37;64.89;100075.78;5070993;28;20111;-87
2021/10/19 09:51:17;;;;;;;35.65;20.95;;;;;;;23.51;63.77;100085.56;5071212;28;20108;-88
2021/10/19 09:53:44;;;;;;;41.33;22.25;;;;;;;22.42;65.93;100093.06;5071405;28;20382;-88
2021/10/19 09:56:10;;;;;;;33.78;19.40;;;;;;;22.12;66.24;100098.44;5071285;28;20021;-87
2021/10/19 09:58:36;;;;;;;41.75;23.17;;;;;;;22.45;66.41;100085.47;5071370;28;20032;-87
2021/10/19 10:01:04;;;;;;;35.58;20.83;;;;;;;21.96;67.58;100094.16;5081872;28;20576;-87
2021/10/19 10:03:29;;;;;;;37.15;21.90;;;;;;;22.17;66.76;100096.84;5079436;28;20097;-88
2021/10/19 10:05:55;;;;;;;42.53;23.33;;;;;;;22.22;66.68;100098.16;5091535;28;20474;-88
2021/10/19 10:08:23;;;;;;;31.65;21.70;;;;;;;22.14;66.73;100097.25;5083784;28;20024;-88
2021/10/19 10:10:56;;;;;;;39.85;24.10;;;;;;;22.20;67.25;100095.66;5071221;28;20081;-88
2021/10/19 10:13:23;;;;;;;35.40;21.95;;;;;;;22.35;66.03;100101.00;5074608;28;20478;-87
2021/10/19 10:15:49;;;;;;;35.38;21.52;;;;;;;22.47;65.48;100099.50;5075614;28;20056;-86
2021/10/19 10:18:14;;;;;;;35.10;20.92;;;;;;;22.43;65.86;100110.75;5086387;28;20055;-87
2021/10/19 10:20:47;;;;;;;38.92;23.00;;;;;;;22.53;66.32;100097.91;5078914;28;20028;-87
2021/10/19 10:23:17;;;;;;;37.60;21.90;;;;;;;23.03;65.13;100101.50;5095435;28;20103;-88
2021/10/19 10:25:43;;;;;;;36.05;20.80;;;;;;;22.64;65.41;100089.38;5093138;28;20085;-87
2021/10/19 10:28:30;;;;;;;40.13;21.73;;;;;;;23.43;63.29;100091.09;5078627;28;20566;-87
2021/10/19 10:31:00;;;;;;;35.92;21.10;;;;;;;24.11;62.40;100085.06;5079269;28;20036;-87
2021/10/19 10:33:31;;;;;;;35.38;20.65;;;;;;;24.82;61.14;100090.03;5094935;28;20020;-87
2021/10/19 10:36:01;;;;;;;35.25;21.58;;;;;;;25.32;58.73;100074.31;5095006;28;20020;-87
2021/10/19 10:38:27;;;;;;;38.08;19.60;;;;;;;25.28;58.25;100073.09;5094979;28;20023;-87
2021/10/19 10:40:56;;;;;;;32.85;18.33;;;;;;;25.46;57.87;100061.69;5094831;28;20488;-88
2021/10/19 10:43:25;;;;;;;31.85;18.85;;;;;;;25.81;56.66;100060.53;5094883;28;20024;-87
2021/10/19 10:46:01;;;;;;;28.55;17.40;;;;;;;26.12;55.38;100070.56;5090012;28;20062;-87
2021/10/19 10:48:26;;;;;;;29.35;19.42;;;;;;;26.45;55.97;100085.72;5083430;28;20039;-88
2021/10/19 10:50:52;;;;;;;23.83;16.13;;;;;;;26.39;55.38;100076.66;5083208;28;20028;-88
2021/10/19 10:53:17;;;;;;;27.67;17.15;;;;;;;25.60;55.26;100081.28;5086364;28;20032;-87
2021/10/19 10:55:49;;;;;;;31.50;16.90;;;;;;;25.03;57.82;100086.28;5073822;28;20077;-87
2021/10/19 10:58:24;;;;;;;33.63;18.23;;;;;;;24.57;58.45;100088.97;5090981;28;20107;-87
2021/10/19 11:00:51;;;;;;;35.47;20.15;;;;;;;24.07;59.49;100097.22;5092669;28;20028;-87
2021/10/19 11:03:18;;;;;;;35.72;19.20;;;;;;;24.17;60.07;100097.69;5085013;28;20035;-87
2021/10/19 11:06:00;;;;;;;36.78;21.33;;;;;;;23.31;61.78;100088.13;5086108;28;20024;-88
2021/10/19 11:08:25;;;;;;;;;;;;;;;23.05;63.41;100083.41;5077224;28;20386;-88
2021/10/19 11:10:52;;;;;;;42.13;21.07;;;;;;;23.56;61.67;100090.34;5085464;28;19924;-87
2021/10/19 11:13:18;;;;;;;36.20;20.98;;;;;;;23.27;62.75;100084.19;5086836;28;20759;-88
2021/10/19 11:15:50;;;;;;;30.75;21.75;;;;;;;22.84;63.29;100084.19;5074068;28;20031;-87